Time;durP1;ratioP1;P1;durP2;ratioP2;P2;SDS_P1;SDS_P2;PMS_P1;PMS_P2;Temp;Humidity;BMP_temperature;BMP_pressure;BME280_temperature;BME280_humidity;BME280_pressure;Samples;Min_cycle;Max_cycle;Signal;HPM_P1;HPM_P2
2022/03/29 00:00:44;;;;;;;;;;;;;;;;;;5031963;28;1061;-67
2022/03/29 00:03:10;;;;;;;;;;;;;;;;;;5031842;28;1233;-69
2022/03/29 00:05:38;;;;;;;;;;;;;;;;;;5031864;28;1970;-69
2022/03/29 00:08:05;;;;;;;;;;;;;;;;;;5031219;28;999;-69
2022/03/29 00:10:32;;;;;;;;;;;;;;;;;;5031588;28;1121;-70
2022/03/29 00:12:58;;;;;;;;;;;;;;;;;;5031791;28;1296;-69
2022/03/29 00:15:24;;;;;;;;;;;;;;;;;;5031925;28;1078;-69
2022/03/29 00:17:50;;;;;;;;;;;;;;;;;;5031248;28;904;-69
2022/03/29 00:20:16;;;;;;;;;;;;;;;;;;5031669;28;1090;-69
2022/03/29 00:22:44;;;;;;;;;;;;;;;;;;5031402;28;1307;-69
2022/03/29 00:25:10;;;;;;;;;;;;;;;;;;5031389;28;1921;-69
2022/03/29 00:27:37;;;;;;;;;;;;;;;;;;5031369;28;1054;-69
2022/03/29 00:30:04;;;;;;;;;;;;;;;;;;5031514;28;1058;-70
2022/03/29 00:32:30;;;;;;;;;;;;;;;;;;5031467;28;1311;-69
2022/03/29 00:34:56;;;;;;;;;;;;;;;;;;5031083;28;923;-69
2022/03/29 00:37:22;;;;;;;;;;;;;;;;;;5031057;28;694;-69
2022/03/29 00:39:50;;;;;;;;;;;;;;;;;;5031224;28;1062;-69
2022/03/29 00:42:16;;;;;;;;;;;;;;;;;;5031543;28;879;-69
2022/03/29 00:44:42;;;;;;;;;;;;;;;;;;5030748;28;1910;-69
2022/03/29 00:47:09;;;;;;;;;;;;;;;;;;5031292;28;775;-70
2022/03/29 00:49:35;;;;;;;;;;;;;;;;;;5029953;28;1165;-69
2022/03/29 00:52:01;;;;;;;;;;;;;;;;;;5030152;28;1202;-69
2022/03/29 00:54:28;;;;;;;;;;;;;;;;;;5032018;28;1319;-68
2022/03/29 00:56:55;;;;;;;;;;;;;;;;;;5032133;28;1066;-68
2022/03/29 00:59:21;;;;;;;;;;;;;;;;;;5031018;28;1070;-69
2022/03/29 01:01:48;;;;;;;;;;;;;;;;;;5031526;28;868;-69
2022/03/29 01:04:14;;;;;;;;;;;;;;;;;;5052189;22;2004;-69
2022/03/29 01:06:40;;;;;;;;;;;;;;;;;;5052161;28;1444;-68
2022/03/29 01:09:06;;;;;;;;;;;;;;;;;;5050550;28;1010;-68
2022/03/29 01:11:33;;;;;;;;;;;;;;;;;;5053001;28;1065;-69
2022/03/29 01:14:01;;;;;;;;;;;;;;;;;;5061834;28;1313;-68
2022/03/29 01:19:12;;;;;;;;;;;;;;;;;;5070235;28;1017;-68
2022/03/29 01:21:39;;;;;;;;;;;;;;;;;;5070323;28;1096;-68
2022/03/29 01:24:08;;;;;;;;;;;;;;;;;;5069785;28;1977;-68
2022/03/29 01:26:34;;;;;;;;;;;;;;;;;;5070007;28;939;-68
2022/03/29 01:29:00;;;;;;;;;;;;;;;;;;5070217;28;1010;-68
2022/03/29 01:31:28;;;;;;;;;;;;;;;;;;5070336;28;1179;-69
2022/03/29 01:33:54;;;;;;;;;;;;;;;;;;5069901;28;1307;-69
2022/03/29 01:36:21;;;;;;;;;;;;;;;;;;5068519;28;1135;-68
2022/03/29 01:38:47;;;;;;;;;;;;;;;;;;5070087;28;1061;-68
2022/03/29 01:41:16;;;;;;;;;;;;;;;;;;5070152;28;975;-68
2022/03/29 01:43:43;;;;;;;;;;;;;;;;;;5069839;28;1362;-68
2022/03/29 01:46:12;;;;;;;;;;;;;;;;;;5069710;28;1969;-68
2022/03/29 01:48:38;;;;;;;;;;;;;;;;;;5070167;28;1089;-68
2022/03/29 01:51:06;;;;;;;;;;;;;;;;;;5069840;28;883;-68
2022/03/29 01:53:32;;;;;;;;;;;;;;;;;;5069903;28;1301;-68
2022/03/29 01:55:59;;;;;;;;;;;;;;;;;;5069804;28;995;-69
2022/03/29 01:58:27;;;;;;;;;;;;;;;;;;5069337;28;1112;-67
2022/03/29 02:00:53;;;;;;;;;;;;;;;;;;5070014;28;1108;-68
2022/03/29 02:03:19;;;;;;;;;;;;;;;;;;5068390;28;1608;-68
2022/03/29 02:05:46;;;;;;;;;;;;;;;;;;5073699;28;1906;-68
2022/03/29 02:08:12;;;;;;;;;;;;;;;;;;5073436;28;784;-68
2022/03/29 02:10:38;;;;;;;;;;;;;;;;;;5073436;28;800;-68
2022/03/29 02:13:09;;;;;;;;;;;;;;;;;;5073383;28;1308;-69
2022/03/29 02:15:36;;;;;;;;;;;;;;;;;;5073102;28;927;-67
2022/03/29 02:18:02;;;;;;;;;;;;;;;;;;5073057;28;1066;-69
2022/03/29 02:20:29;;;;;;;;;;;;;;;;;;5073368;28;844;-68
2022/03/29 02:22:55;;;;;;;;;;;;;;;;;;5073195;28;1364;-67
2022/03/29 02:25:21;;;;;;;;;;;;;;;;;;5072741;28;1914;-68
2022/03/29 02:27:48;;;;;;;;;;;;;;;;;;5072925;28;886;-68
2022/03/29 02:30:15;;;;;;;;;;;;;;;;;;5073030;28;1109;-68
2022/03/29 02:32:43;;;;;;;;;;;;;;;;;;5071524;28;1199;-68
2022/03/29 02:35:09;;;;;;;;;;;;;;;;;;5072665;28;1379;-68
2022/03/29 02:37:37;;;;;;;;;;;;;;;;;;5072614;28;1073;-69
2022/03/29 02:40:05;;;;;;;;;;;;;;;;;;5073000;28;864;-69
2022/03/29 02:42:32;;;;;;;;;;;;;;;;;;5072893;28;801;-68
2022/03/29 02:44:58;;;;;;;;;;;;;;;;;;5072875;28;1910;-68
2022/03/29 02:47:24;;;;;;;;;;;;;;;;;;5072265;28;1061;-68
2022/03/29 02:49:52;;;;;;;;;;;;;;;;;;5072883;28;1109;-68
2022/03/29 02:52:18;;;;;;;;;;;;;;;;;;5072544;28;1117;-68
2022/03/29 02:54:44;;;;;;;;;;;;;;;;;;5072765;28;1365;-68
2022/03/29 02:57:11;;;;;;;;;;;;;;;;;;5072315;28;1056;-68
2022/03/29 02:59:37;;;;;;;;;;;;;;;;;;5072976;28;1066;-68
2022/03/29 03:02:04;;;;;;;;;;;;;;;;;;5072670;28;862;-67
2022/03/29 03:04:30;;;;;;;;;;;;;;;;;;5069220;28;1989;-66
2022/03/29 03:06:57;;;;;;;;;;;;;;;;;;5069511;28;1930;-68
2022/03/29 03:09:24;;;;;;;;;;;;;;;;;;5072333;28;1193;-68
2022/03/29 03:11:50;;;;;;;;;;;;;;;;;;5066765;28;1498;-69
2022/03/29 03:14:16;;;;;;;;;;;;;;;;;;5052437;28;1294;-67
2022/03/29 03:16:43;;;;;;;;;;;;;;;;;;5051529;28;1061;-68
2022/03/29 03:19:09;;;;;;;;;;;;;;;;;;5052128;28;1077;-68
2022/03/29 03:21:36;;;;;;;;;;;;;;;;;;5050632;28;1219;-68
2022/03/29 03:24:03;;;;;;;;;;;;;;;;;;5052225;28;1404;-68
2022/03/29 03:26:30;;;;;;;;;;;;;;;;;;5051540;28;1981;-67
2022/03/29 03:28:58;;;;;;;;;;;;;;;;;;5050960;28;844;-68
2022/03/29 03:31:24;;;;;;;;;;;;;;;;;;5051864;28;1069;-68
2022/03/29 03:33:51;;;;;;;;;;;;;;;;;;5051887;28;1379;-68
2022/03/29 03:36:17;;;;;;;;;;;;;;;;;;5050284;28;896;-68
2022/03/29 03:38:43;;;;;;;;;;;;;;;;;;5051998;28;1065;-68
2022/03/29 03:41:11;;;;;;;;;;;;;;;;;;5051647;28;824;-67
2022/03/29 03:43:37;;;;;;;;;;;;;;;;;;5051607;28;1300;-68
2022/03/29 03:46:03;;;;;;;;;;;;;;;;;;5051425;28;1914;-68
2022/03/29 03:48:29;;;;;;;;;;;;;;;;;;5051644;28;1082;-68
2022/03/29 03:50:55;;;;;;;;;;;;;;;;;;5051425;28;799;-68
2022/03/29 03:53:21;;;;;;;;;;;;;;;;;;5051446;28;1310;-67
2022/03/29 03:55:48;;;;;;;;;;;;;;;;;;5051808;28;951;-66
2022/03/29 03:58:16;;;;;;;;;;;;;;;;;;5050984;28;1243;-64
2022/03/29 04:00:43;;;;;;;;;;;;;;;;;;5055158;28;1690;-65
2022/03/29 04:03:10;;;;;;;;;;;;;;;;;;5050900;28;1336;-67
2022/03/29 04:05:36;;;;;;;;;;;;;;;;;;5051180;28;1965;-67
2022/03/29 04:08:02;;;;;;;;;;;;;;;;;;5050839;28;951;-67
2022/03/29 04:10:28;;;;;;;;;;;;;;;;;;5054547;28;1608;-66
2022/03/29 04:12:54;;;;;;;;;;;;;;;;;;5050043;28;1432;-66
2022/03/29 04:15:22;;;;;;;;;;;;;;;;;;5066854;28;1648;-67
2022/03/29 04:17:48;;;;;;;;;;;;;;;;;;5056472;28;1604;-68
2022/03/29 04:20:14;;;;;;;;;;;;;;;;;;5064492;28;1596;-70
2022/03/29 04:22:40;;;;;;;;;;;;;;;;;;5071025;28;1132;-68
2022/03/29 04:25:07;;;;;;;;;;;;;;;;;;5059885;28;1910;-68
2022/03/29 04:27:33;;;;;;;;;;;;;;;;;;5062613;28;1712;-67
2022/03/29 04:29:59;;;;;;;;;;;;;;;;;;5055073;28;1588;-68
2022/03/29 04:32:27;;;;;;;;;;;;;;;;;;5053556;28;1690;-68
2022/03/29 04:34:53;;;;;;;;;;;;;;;;;;5050573;28;1385;-65
2022/03/29 04:37:20;;;;;;;;;;;;;;;;;;5050067;28;903;-66
2022/03/29 04:39:46;;;;;;;;;;;;;;;;;;5050530;28;951;-67
2022/03/29 04:42:12;;;;;;;;;;;;;;;;;;5050384;28;1114;-67
2022/03/29 04:44:39;;;;;;;;;;;;;;;;;;5050450;28;1308;-66
2022/03/29 04:47:05;;;;;;;;;;;;;;;;;;5050012;28;1975;-67
2022/03/29 04:49:34;;;;;;;;;;;;;;;;;;5054653;28;2077;-67
2022/03/29 04:52:00;;;;;;;;;;;;;;;;;;5053986;28;1317;-68
2022/03/29 04:54:26;;;;;;;;;;;;;;;;;;5050431;28;1382;-67
2022/03/29 04:56:52;;;;;;;;;;;;;;;;;;5050169;28;1054;-67
2022/03/29 04:59:19;;;;;;;;;;;;;;;;;;5049861;28;1116;-68
2022/03/29 05:01:45;;;;;;;;;;;;;;;;;;5050187;28;1042;-68
2022/03/29 05:04:11;;;;;;;;;;;;;;;;;;5050210;28;1387;-68
2022/03/29 05:06:39;;;;;;;;;;;;;;;;;;5049982;28;1910;-68
2022/03/29 05:09:05;;;;;;;;;;;;;;;;;;5050107;28;1065;-67
2022/03/29 05:11:31;;;;;;;;;;;;;;;;;;5050274;28;851;-68
2022/03/29 05:13:57;;;;;;;;;;;;;;;;;;5049234;28;1308;-66
2022/03/29 05:16:23;;;;;;;;;;;;;;;;;;5063892;28;1154;-68
2022/03/29 05:18:51;;;;;;;;;;;;;;;;;;5059111;28;1258;-69
2022/03/29 05:21:17;;;;;;;;;;;;;;;;;;5066220;28;1396;-67
2022/03/29 05:23:44;;;;;;;;;;;;;;;;;;5069231;28;1394;-69
2022/03/29 05:26:11;;;;;;;;;;;;;;;;;;5067832;28;1917;-69
2022/03/29 05:28:37;;;;;;;;;;;;;;;;;;5068809;28;828;-68
2022/03/29 05:31:03;;;;;;;;;;;;;;;;;;5069393;28;1046;-68
2022/03/29 05:33:29;;;;;;;;;;;;;;;;;;5069318;28;1338;-68
2022/03/29 05:35:56;;;;;;;;;;;;;;;;;;5068794;28;1069;-67
2022/03/29 05:38:22;;;;;;;;;;;;;;;;;;5068304;28;998;-66
2022/03/29 05:40:50;;;;;;;;;;;;;;;;;;5073026;28;1058;-68
2022/03/29 05:43:17;;;;;;;;;;;;;;;;;;5072815;28;1368;-67
2022/03/29 05:45:45;;;;;;;;;;;;;;;;;;5072845;28;1992;-69
2022/03/29 05:50:55;;;;;;;;;;;;;;;;;;5073047;28;971;-68
2022/03/29 05:53:22;;;;;;;;;;;;;;;;;;5072966;28;1435;-68
2022/03/29 05:55:48;;;;;;;;;;;;;;;;;;5072112;28;851;-68
2022/03/29 05:58:17;;;;;;;;;;;;;;;;;;5070461;28;1158;-68
2022/03/29 06:00:43;;;;;;;;;;;;;;;;;;5072949;28;868;-68
2022/03/29 06:03:10;;;;;;;;;;;;;;;;;;5072494;28;1330;-68
2022/03/29 06:05:36;;;;;;;;;;;;;;;;;;5072113;28;2258;-68
2022/03/29 06:08:02;;;;;;;;;;;;;;;;;;5071430;28;843;-68
2022/03/29 06:10:29;;;;;;;;;;;;;;;;;;5072829;28;760;-67
2022/03/29 06:12:55;;;;;;;;;;;;;;;;;;5072599;28;1282;-68
2022/03/29 06:15:22;;;;;;;;;;;;;;;;;;5071787;28;1137;-68
2022/03/29 06:17:48;;;;;;;;;;;;;;;;;;5071552;28;1120;-68
2022/03/29 06:20:15;;;;;;;;;;;;;;;;;;5072417;28;1050;-68
2022/03/29 06:22:44;;;;;;;;;;;;;;;;;;5072723;28;693;-68
2022/03/29 06:25:10;;;;;;;;;;;;;;;;;;5071662;28;1325;-68
2022/03/29 06:27:37;;;;;;;;;;;;;;;;;;5071430;28;1969;-68
2022/03/29 06:30:04;;;;;;;;;;;;;;;;;;5072271;28;1057;-68
2022/03/29 06:32:32;;;;;;;;;;;;;;;;;;5072104;28;1049;-67
2022/03/29 06:34:58;;;;;;;;;;;;;;;;;;5072126;28;1304;-68
2022/03/29 06:37:24;;;;;;;;;;;;;;;;;;5071177;28;962;-68
2022/03/29 06:39:51;;;;;;;;;;;;;;;;;;5071828;28;1113;-68
2022/03/29 06:42:18;;;;;;;;;;;;;;;;;;5072237;28;847;-68
2022/03/29 06:44:45;;;;;;;;;;;;;;;;;;5071996;28;1374;-67
2022/03/29 06:47:11;;;;;;;;;;;;;;;;;;5070831;28;1996;-68
2022/03/29 06:49:39;;;;;;;;;;;;;;;;;;5071459;28;966;-68
2022/03/29 06:52:07;;;;;;;;;;;;;;;;;;5070931;28;1053;-68
2022/03/29 06:54:33;;;;;;;;;;;;;;;;;;5071803;28;1414;-68
2022/03/29 06:56:59;;;;;;;;;;;;;;;;;;5070851;28;1084;-68
2022/03/29 06:59:25;;;;;;;;;;;;;;;;;;5071368;28;1132;-67
2022/03/29 07:01:51;;;;;;;;;;;;;;;;;;5071755;28;1125;-68
2022/03/29 07:04:18;;;;;;;;;;;;;;;;;;5081730;23;3625;-68
2022/03/29 07:06:45;;;;;;;;;;;;;;;;;;5050411;28;1918;-69
2022/03/29 07:11:55;;;;;;;;;;;;;;;;;;5052079;28;879;-69
2022/03/29 07:14:21;;;;;;;;;;;;;;;;;;5051912;28;1431;-68
2022/03/29 07:16:47;;;;;;;;;;;;;;;;;;5050552;28;1476;-69
2022/03/29 07:19:14;;;;;;;;;;;;;;;;;;5051108;28;1640;-66
2022/03/29 07:21:42;;;;;;;;;;;;;;;;;;5051639;28;823;-68
2022/03/29 07:24:10;;;;;;;;;;;;;;;;;;5049955;28;1387;-69
2022/03/29 07:26:37;;;;;;;;;;;;;;;;;;5058168;28;1981;-69
2022/03/29 07:29:04;;;;;;;;;;;;;;;;;;5071108;28;1018;-69
2022/03/29 07:31:30;;;;;;;;;;;;;;;;;;5071341;28;1113;-68
2022/03/29 07:33:57;;;;;;;;;;;;;;;;;;5071405;28;1347;-69
2022/03/29 07:36:23;;;;;;;;;;;;;;;;;;5070522;28;949;-69
2022/03/29 07:38:49;;;;;;;;;;;;;;;;;;5071042;28;1053;-69
2022/03/29 07:41:17;;;;;;;;;;;;;;;;;;5070974;28;1078;-66
2022/03/29 07:43:44;;;;;;;;;;;;;;;;;;5070878;28;974;-68
2022/03/29 07:46:10;;;;;;;;;;;;;;;;;;5069914;28;1914;-69
2022/03/29 07:48:36;;;;;;;;;;;;;;;;;;5070865;28;1112;-69
2022/03/29 07:51:02;;;;;;;;;;;;;;;;;;5070692;28;947;-69
2022/03/29 07:53:29;;;;;;;;;;;;;;;;;;5071170;28;1128;-68
2022/03/29 07:55:56;;;;;;;;;;;;;;;;;;5070232;28;1302;-69
2022/03/29 07:58:23;;;;;;;;;;;;;;;;;;5070337;28;1074;-67
2022/03/29 08:00:51;;;;;;;;;;;;;;;;;;5070555;28;1061;-69
2022/03/29 08:03:18;;;;;;;;;;;;;;;;;;5070551;28;1069;-69
2022/03/29 08:05:45;;;;;;;;;;;;;;;;;;5070221;28;1406;-69
2022/03/29 08:08:13;;;;;;;;;;;;;;;;;;5070137;28;1971;-69
2022/03/29 08:10:39;;;;;;;;;;;;;;;;;;5070504;28;1145;-69
2022/03/29 08:13:07;;;;;;;;;;;;;;;;;;5070674;28;1073;-69
2022/03/29 08:15:35;;;;;;;;;;;;;;;;;;5068733;28;1316;-67
2022/03/29 08:18:01;;;;;;;;;;;;;;;;;;5068629;28;1146;-69
2022/03/29 08:20:29;;;;;;;;;;;;;;;;;;5070071;28;1104;-68
2022/03/29 08:22:59;;;;;;;;;;;;;;;;;;5070838;28;1054;-69
2022/03/29 08:25:25;;;;;;;;;;;;;;;;;;5067362;28;1380;-67
2022/03/29 08:27:53;;;;;;;;;;;;;;;;;;5068387;28;1906;-69
2022/03/29 08:30:19;;;;;;;;;;;;;;;;;;5069165;28;1190;-70
2022/03/29 08:32:47;;;;;;;;;;;;;;;;;;5071532;28;1123;-69
2022/03/29 08:35:13;;;;;;;;;;;;;;;;;;5070430;28;1373;-69
2022/03/29 08:37:40;;;;;;;;;;;;;;;;;;5069733;28;729;-69
2022/03/29 08:40:09;;;;;;;;;;;;;;;;;;5069718;28;1116;-69
2022/03/29 08:42:35;;;;;;;;;;;;;;;;;;5070076;28;1120;-69
2022/03/29 08:45:02;;;;;;;;;;;;;;;;;;5069686;28;1398;-68
2022/03/29 08:47:28;;;;;;;;;;;;;;;;;;5068267;28;1917;-69
2022/03/29 08:49:55;;;;;;;;;;;;;;;;;;5069610;28;914;-68
2022/03/29 08:52:22;;;;;;;;;;;;;;;;;;5069835;28;1120;-69
2022/03/29 08:54:49;;;;;;;;;;;;;;;;;;5069136;28;1395;-69
2022/03/29 08:57:15;;;;;;;;;;;;;;;;;;5069069;28;1112;-69
2022/03/29 08:59:42;;;;;;;;;;;;;;;;;;5069783;28;1073;-69
2022/03/29 09:02:09;;;;;;;;;;;;;;;;;;5069682;28;1045;-69
2022/03/29 09:04:35;;;;;;;;;;;;;;;;;;5069305;28;1336;-69
2022/03/29 09:07:02;;;;;;;;;;;;;;;;;;5056282;28;1942;-70
2022/03/29 09:09:30;;;;;;;;;;;;;;;;;;5044300;28;1472;-70
2022/03/29 09:11:56;;;;;;;;;;;;;;;;;;5049373;28;1120;-70
2022/03/29 09:14:23;;;;;;;;;;;;;;;;;;5048803;28;1442;-70
2022/03/29 09:16:51;;;;;;;;;;;;;;;;;;5049369;28;1073;-69
2022/03/29 09:19:17;;;;;;;;;;;;;;;;;;5049386;28;967;-69
2022/03/29 09:21:44;;;;;;;;;;;;;;;;;;5049868;28;938;-69
2022/03/29 09:24:12;;;;;;;;;;;;;;;;;;5049111;28;1364;-70
2022/03/29 09:26:39;;;;;;;;;;;;;;;;;;5048469;28;1918;-69
2022/03/29 09:29:12;;;;;;;;;;;;;;;;;;5049194;28;864;-69
2022/03/29 09:31:38;;;;;;;;;;;;;;;;;;5048414;28;871;-70
2022/03/29 09:34:11;;;;;;;;;;;;;;;;;;5049727;28;1340;-70
2022/03/29 09:36:42;;;;;;;;;;;;;;;;;;5048873;28;1034;-69
2022/03/29 09:39:08;;;;;;;;;;;;;;;;;;5048937;28;1066;-69
2022/03/29 09:41:37;;;;;;;;;;;;;;;;;;5049396;28;787;-69
2022/03/29 09:44:33;;;;;;;;;;;;;;;;;;5048995;28;1459;-69
2022/03/29 09:47:01;;;;;;;;;;;;;;;;;;5048419;28;1977;-69
2022/03/29 09:49:27;;;;;;;;;;;;;;;;;;5049142;28;1062;-70
2022/03/29 09:52:08;;;;;;;;;;;;;;;;;;5048966;28;1106;-70
2022/03/29 09:54:34;;;;;;;;;;;;;;;;;;5049102;28;1330;-70
2022/03/29 09:57:01;;;;;;;;;;;;;;;;;;5048517;28;1125;-70
2022/03/29 09:59:28;;;;;;;;;;;;;;;;;;5049078;28;1065;-69
2022/03/29 10:01:57;;;;;;;;;;;;;;;;;;5049001;28;1022;-69
2022/03/29 10:04:24;;;;;;;;;;;;;;;;;;5048735;28;1326;-69
2022/03/29 10:06:52;;;;;;;;;;;;;;;;;;5048497;28;1914;-70
2022/03/29 10:09:29;;;;;;;;;;;;;;;;;;5048597;28;983;-69
2022/03/29 10:11:57;;;;;;;;;;;;;;;;;;5048873;28;915;-71
2022/03/29 10:14:25;;;;;;;;;;;;;;;;;;5048947;28;1353;-70
2022/03/29 10:16:52;;;;;;;;;;;;;;;;;;5048681;28;1049;-70
2022/03/29 10:19:18;;;;;;;;;;;;;;;;;;5048905;28;1090;-70
2022/03/29 10:21:45;;;;;;;;;;;;;;;;;;5048445;28;1078;-70
2022/03/29 10:24:11;;;;;;;;;;;;;;;;;;5048954;28;1289;-69
2022/03/29 10:26:38;;;;;;;;;;;;;;;;;;5052007;28;757;-69
2022/03/29 10:29:06;;;;;;;;;;;;;;;;;;5052223;28;1973;-69
2022/03/29 10:31:36;;;;;;;;;;;;;;;;;;5047267;28;1240;-71
2022/03/29 10:34:17;;;;;;;;;;;;;;;;;;5032642;28;1463;-69
2022/03/29 10:37:03;;;;;;;;;;;;;;;;;;5051332;28;1561;-71
2022/03/29 10:39:49;;;;;;;;;;;;;;;;;;5050673;28;1593;-70
2022/03/29 10:42:24;;;;;;;;;;;;;;;;;;5052482;28;1065;-69
2022/03/29 10:44:58;;;;;;;;;;;;;;;;;;5051230;28;1605;-69
2022/03/29 10:47:29;;;;;;;;;;;;;;;;;;5047516;28;1969;-69
2022/03/29 10:49:55;;;;;;;;;;;;;;;;;;5052050;28;1074;-69
2022/03/29 10:52:28;;;;;;;;;;;;;;;;;;5051945;28;1644;-69
2022/03/29 10:54:54;;;;;;;;;;;;;;;;;;5050864;28;1565;-69
2022/03/29 10:57:24;;;;;;;;;;;;;;;;;;5051142;28;1840;-70
2022/03/29 10:59:51;;;;;;;;;;;;;;;;;;5051464;28;2170;-69
2022/03/29 11:02:19;;;;;;;;;;;;;;;;;;5049379;28;1040;-70
2022/03/29 11:05:05;;;;;;;;;;;;;;;;;;5049745;28;1450;-69
2022/03/29 11:07:32;;;;;;;;;;;;;;;;;;5050330;28;1963;-69
2022/03/29 11:10:09;;;;;;;;;;;;;;;;;;5051071;28;1490;-69
2022/03/29 11:12:35;;;;;;;;;;;;;;;;;;5051303;28;1652;-69
2022/03/29 11:15:02;;;;;;;;;;;;;;;;;;5050590;28;1828;-70
2022/03/29 11:17:40;;;;;;;;;;;;;;;;;;5050813;28;1668;-70
2022/03/29 11:20:25;;;;;;;;;;;;;;;;;;5049449;28;1468;-70
2022/03/29 11:22:52;;;;;;;;;;;;;;;;;;5051316;28;1601;-70
2022/03/29 11:25:22;;;;;;;;;;;;;;;;;;5050579;28;1605;-70
2022/03/29 11:27:48;;;;;;;;;;;;;;;;;;5049715;28;2021;-71
2022/03/29 11:30:14;;;;;;;;;;;;;;;;;;5049948;28;1358;-71
2022/03/29 11:32:41;;;;;;;;;;;;;;;;;;5050590;28;1411;-70
2022/03/29 11:35:08;;;;;;;;;;;;;;;;;;5050797;28;1700;-69
2022/03/29 11:37:37;;;;;;;;;;;;;;;;;;5050061;28;1589;-69
2022/03/29 11:40:05;;;;;;;;;;;;;;;;;;5051118;28;959;-70
2022/03/29 11:42:44;;;;;;;;;;;;;;;;;;5048715;28;1607;-69
2022/03/29 11:45:12;;;;;;;;;;;;;;;;;;5051224;28;1448;-69
2022/03/29 11:47:38;;;;;;;;;;;;;;;;;;5050282;28;1910;-70
2022/03/29 11:50:05;;;;;;;;;;;;;;;;;;5050543;28;1557;-69
2022/03/29 11:52:32;;;;;;;;;;;;;;;;;;5048511;28;1487;-70
2022/03/29 11:55:00;;;;;;;;;;;;;;;;;;5048931;28;1433;-70
2022/03/29 11:57:28;;;;;;;;;;;;;;;;;;5050176;28;1422;-70
2022/03/29 11:59:55;;;;;;;;;;;;;;;;;;5050031;28;1616;-71
2022/03/29 12:02:22;;;;;;;;;;;;;;;;;;5045643;28;1597;-70
2022/03/29 12:04:48;;;;;;;;;;;;;;;;;;5049192;28;1341;-71
2022/03/29 12:07:15;;;;;;;;;;;;;;;;;;5049726;28;1423;-71
2022/03/29 12:09:46;;;;;;;;;;;;;;;;;;5048337;28;1906;-71
2022/03/29 12:12:12;;;;;;;;;;;;;;;;;;5050246;28;1085;-71
2022/03/29 12:14:39;;;;;;;;;;;;;;;;;;5050417;28;1416;-72
2022/03/29 12:17:08;;;;;;;;;;;;;;;;;;5050003;28;1069;-71
2022/03/29 12:19:34;;;;;;;;;;;;;;;;;;5049776;28;1011;-71
2022/03/29 12:22:02;;;;;;;;;;;;;;;;;;5050134;28;1073;-71
2022/03/29 12:24:28;;;;;;;;;;;;;;;;;;5049466;28;1396;-70
2022/03/29 12:26:55;;;;;;;;;;;;;;;;;;5048540;28;1686;-70
2022/03/29 12:29:22;;;;;;;;;;;;;;;;;;5049141;28;1975;-70
2022/03/29 12:31:49;;;;;;;;;;;;;;;;;;5050122;28;1065;-71
2022/03/29 12:34:17;;;;;;;;;;;;;;;;;;5049082;28;1557;-71
2022/03/29 12:36:49;;;;;;;;;;;;;;;;;;5045570;28;1644;-71
2022/03/29 12:39:15;;;;;;;;;;;;;;;;;;5049811;28;1649;-70
2022/03/29 12:41:44;;;;;;;;;;;;;;;;;;5048224;28;1586;-70
2022/03/29 12:44:11;;;;;;;;;;;;;;;;;;5049234;28;1353;-72
2022/03/29 12:46:38;;;;;;;;;;;;;;;;;;5048569;28;1866;-72
2022/03/29 12:49:06;;;;;;;;;;;;;;;;;;5048579;28;1910;-71
2022/03/29 12:51:33;;;;;;;;;;;;;;;;;;5049118;28;1438;-72
2022/03/29 12:53:59;;;;;;;;;;;;;;;;;;5048756;28;1534;-71
2022/03/29 12:56:33;;;;;;;;;;;;;;;;;;5048833;28;1585;-70
2022/03/29 12:58:59;;;;;;;;;;;;;;;;;;5049325;28;936;-71
2022/03/29 13:01:26;;;;;;;;;;;;;;;;;;5047114;28;1503;-71
2022/03/29 13:03:52;;;;;;;;;;;;;;;;;;5048911;28;1330;-70
2022/03/29 13:06:20;;;;;;;;;;;;;;;;;;5056426;23;3739;-68
2022/03/29 13:08:46;;;;;;;;;;;;;;;;;;5038098;28;1922;-69
2022/03/29 13:11:16;;;;;;;;;;;;;;;;;;5048510;28;1209;-68
2022/03/29 13:13:43;;;;;;;;;;;;;;;;;;5047175;28;1406;-69
2022/03/29 13:16:18;;;;;;;;;;;;;;;;;;5038925;28;1600;-67
2022/03/29 13:18:49;;;;;;;;;;;;;;;;;;5036356;28;1367;-67
2022/03/29 13:21:16;;;;;;;;;;;;;;;;;;5046943;28;1585;-68
2022/03/29 13:23:44;;;;;;;;;;;;;;;;;;5038413;28;1732;-70
2022/03/29 13:26:11;;;;;;;;;;;;;;;;;;5046572;28;1402;-70
2022/03/29 13:28:37;;;;;;;;;;;;;;;;;;5046911;28;1918;-68
2022/03/29 13:31:04;;;;;;;;;;;;;;;;;;5048783;28;1094;-70
2022/03/29 13:33:30;;;;;;;;;;;;;;;;;;5041035;28;1193;-68
2022/03/29 13:35:56;;;;;;;;;;;;;;;;;;5044337;28;1506;-67
2022/03/29 13:38:23;;;;;;;;;;;;;;;;;;5045546;28;1565;-68
2022/03/29 13:40:52;;;;;;;;;;;;;;;;;;5046493;28;1431;-67
2022/03/29 13:43:19;;;;;;;;;;;;;;;;;;5040537;28;1608;-68
2022/03/29 13:45:45;;;;;;;;;;;;;;;;;;5029219;28;1314;-68
2022/03/29 13:48:11;;;;;;;;;;;;;;;;;;5036161;28;1918;-70
2022/03/29 13:50:38;;;;;;;;;;;;;;;;;;5056586;28;1565;-69
2022/03/29 13:53:04;;;;;;;;;;;;;;;;;;5048804;28;1593;-69
2022/03/29 13:55:32;;;;;;;;;;;;;;;;;;5048957;28;1377;-68
2022/03/29 13:58:00;;;;;;;;;;;;;;;;;;5041003;28;1319;-69
2022/03/29 14:00:27;;;;;;;;;;;;;;;;;;5049035;28;1645;-69
2022/03/29 14:02:53;;;;;;;;;;;;;;;;;;5052966;28;909;-69
2022/03/29 14:05:19;;;;;;;;;;;;;;;;;;5045304;28;1290;-69
2022/03/29 14:07:45;;;;;;;;;;;;;;;;;;5051676;28;1367;-69
2022/03/29 14:10:14;;;;;;;;;;;;;;;;;;5052303;28;1981;-67
2022/03/29 14:12:40;;;;;;;;;;;;;;;;;;5052137;28;938;-69
2022/03/29 14:15:08;;;;;;;;;;;;;;;;;;5053383;28;1314;-69
2022/03/29 14:17:35;;;;;;;;;;;;;;;;;;5050963;28;1561;-68
2022/03/29 14:20:01;;;;;;;;;;;;;;;;;;5051711;28;1609;-69
2022/03/29 14:22:27;;;;;;;;;;;;;;;;;;5052058;28;1050;-69
2022/03/29 14:24:53;;;;;;;;;;;;;;;;;;5052994;28;1411;-69
2022/03/29 14:27:20;;;;;;;;;;;;;;;;;;5052811;28;1065;-68
2022/03/29 14:29:46;;;;;;;;;;;;;;;;;;5034277;28;1914;-69
2022/03/29 14:32:13;;;;;;;;;;;;;;;;;;5033090;28;1109;-69
2022/03/29 14:34:40;;;;;;;;;;;;;;;;;;5032922;28;1313;-68
2022/03/29 14:37:06;;;;;;;;;;;;;;;;;;5033535;28;1656;-69
2022/03/29 14:39:32;;;;;;;;;;;;;;;;;;5048118;28;1565;-68
2022/03/29 14:41:58;;;;;;;;;;;;;;;;;;5053043;28;1066;-68
2022/03/29 14:44:25;;;;;;;;;;;;;;;;;;5051174;28;1527;-67
2022/03/29 14:46:56;;;;;;;;;;;;;;;;;;5048480;28;2133;-69
2022/03/29 14:49:24;;;;;;;;;;;;;;;;;;5045132;28;1956;-67
2022/03/29 14:51:50;;;;;;;;;;;;;;;;;;5048556;28;1663;-67
2022/03/29 14:54:16;;;;;;;;;;;;;;;;;;5036696;28;1418;-68
2022/03/29 14:56:43;;;;;;;;;;;;;;;;;;5032222;28;1282;-69
2022/03/29 14:59:10;;;;;;;;;;;;;;;;;;5051094;28;1149;-68
2022/03/29 15:01:36;;;;;;;;;;;;;;;;;;5052253;28;894;-68
2022/03/29 15:04:02;;;;;;;;;;;;;;;;;;5051673;28;1660;-68
2022/03/29 15:06:30;;;;;;;;;;;;;;;;;;5048707;28;1492;-67
2022/03/29 15:08:56;;;;;;;;;;;;;;;;;;5052238;28;1963;-68
2022/03/29 15:11:23;;;;;;;;;;;;;;;;;;5051624;28;1120;-69
2022/03/29 15:13:49;;;;;;;;;;;;;;;;;;5043965;28;1339;-69
2022/03/29 15:16:16;;;;;;;;;;;;;;;;;;5050139;28;2168;-68
2022/03/29 15:18:42;;;;;;;;;;;;;;;;;;5048400;28;1545;-67
2022/03/29 15:21:08;;;;;;;;;;;;;;;;;;5051857;28;1209;-68
2022/03/29 15:23:36;;;;;;;;;;;;;;;;;;5051986;28;967;-68
2022/03/29 15:26:02;;;;;;;;;;;;;;;;;;5051805;28;1334;-67
2022/03/29 15:28:28;;;;;;;;;;;;;;;;;;5035727;28;1613;-68
2022/03/29 15:30:54;;;;;;;;;;;;;;;;;;5049500;28;1927;-68
2022/03/29 15:33:21;;;;;;;;;;;;;;;;;;5051775;28;1133;-67
2022/03/29 15:35:47;;;;;;;;;;;;;;;;;;5045798;28;1377;-67
2022/03/29 15:38:13;;;;;;;;;;;;;;;;;;5049906;28;1330;-67
2022/03/29 15:40:41;;;;;;;;;;;;;;;;;;5050363;28;1553;-67
2022/03/29 15:43:07;;;;;;;;;;;;;;;;;;5051492;28;1112;-68
2022/03/29 15:45:34;;;;;;;;;;;;;;;;;;5051463;28;1293;-68
2022/03/29 15:48:01;;;;;;;;;;;;;;;;;;5050531;28;1635;-68
2022/03/29 15:50:27;;;;;;;;;;;;;;;;;;5050514;28;1964;-68
2022/03/29 15:52:53;;;;;;;;;;;;;;;;;;5040467;28;1278;-68
2022/03/29 15:55:19;;;;;;;;;;;;;;;;;;5038013;28;1335;-68
2022/03/29 15:57:47;;;;;;;;;;;;;;;;;;5039013;28;1323;-67
2022/03/29 16:00:13;;;;;;;;;;;;;;;;;;5040818;28;1291;-67
2022/03/29 16:02:42;;;;;;;;;;;;;;;;;;5034733;28;1320;-67
2022/03/29 16:05:10;;;;;;;;;;;;;;;;;;5043398;28;1562;-67
2022/03/29 16:07:36;;;;;;;;;;;;;;;;;;5042269;28;1183;-67
2022/03/29 16:10:03;;;;;;;;;;;;;;;;;;5049920;28;1963;-67
2022/03/29 16:12:33;;;;;;;;;;;;;;;;;;5047334;28;1596;-67
2022/03/29 16:15:01;;;;;;;;;;;;;;;;;;5038939;28;1390;-67
2022/03/29 16:17:27;;;;;;;;;;;;;;;;;;5036645;28;1597;-68
2022/03/29 16:19:53;;;;;;;;;;;;;;;;;;5049063;28;978;-67
2022/03/29 16:22:19;;;;;;;;;;;;;;;;;;5048747;28;1018;-67
2022/03/29 16:24:45;;;;;;;;;;;;;;;;;;5047546;28;1632;-68
2022/03/29 16:27:12;;;;;;;;;;;;;;;;;;5047225;28;1526;-67
2022/03/29 16:29:38;;;;;;;;;;;;;;;;;;5049128;28;1910;-68
2022/03/29 16:32:06;;;;;;;;;;;;;;;;;;5047320;28;958;-67
2022/03/29 16:34:32;;;;;;;;;;;;;;;;;;5047339;28;1375;-68
2022/03/29 16:36:58;;;;;;;;;;;;;;;;;;5045828;28;1692;-67
2022/03/29 16:39:25;;;;;;;;;;;;;;;;;;5040570;28;1514;-67
2022/03/29 16:41:51;;;;;;;;;;;;;;;;;;5037965;28;1406;-67
2022/03/29 16:44:17;;;;;;;;;;;;;;;;;;5042073;28;1316;-67
2022/03/29 16:46:44;;;;;;;;;;;;;;;;;;5038292;28;1627;-68
2022/03/29 16:49:11;;;;;;;;;;;;;;;;;;5028605;28;1971;-67
2022/03/29 16:51:38;;;;;;;;;;;;;;;;;;5028318;28;1055;-67
2022/03/29 16:54:04;;;;;;;;;;;;;;;;;;5038096;28;1659;-67
2022/03/29 16:56:31;;;;;;;;;;;;;;;;;;5048198;28;1320;-68
2022/03/29 16:58:59;;;;;;;;;;;;;;;;;;5048537;28;855;-67
2022/03/29 17:01:25;;;;;;;;;;;;;;;;;;5048632;28;1058;-68
2022/03/29 17:03:51;;;;;;;;;;;;;;;;;;5042325;28;1557;-67
2022/03/29 17:06:19;;;;;;;;;;;;;;;;;;5034892;28;1546;-68
2022/03/29 17:08:45;;;;;;;;;;;;;;;;;;5041295;28;1151;-67
2022/03/29 17:11:11;;;;;;;;;;;;;;;;;;5038924;28;1987;-67
2022/03/29 17:13:38;;;;;;;;;;;;;;;;;;5037151;28;1262;-67